»·PEaware :: WAT169 KRNO-KLAS

WAT169 :: KRNO-KLAS

FLIGHT INFORMATION

Flight Status: Arrived
Operator:
Walker Air Transport
More flights by this operator :: More flights under this callsign
Pilot: Marty P. (27464)
Aircraft: BOEING 737-800
(B738)
More flights by this aircraft type
Origin: KRNO Reno/Tahoe Intl
United States
Destination: KLAS McCarran Intl
United States
More flights between these airports :: More routes between these airports
Route: ZEFFR6 PESKE LIDAT J92 BTY SUNST4
File this flight plan on PilotEdge
Remarks:
Altitude:
(Current/Filed)
33,000ft
Speed:
(Current/Filed)
500kts
Departed: 13-Jan-21 08:45 PM
Arrived: 13-Jan-21 09:37 PM
Distance/Time
Traveled:
300nm/0:52
Distance/Time
To Go:
Arrived

Flight Plot

Page will automatically refresh every two minutes.

Flight plan parsing failed; only flown route is shown


Map Options




Map Legend


Flown Route
Filed Route
Departure Airport
Arrival Airport
Navaid (VOR, NDB)
Fix

Horizontal Profiles

Position Reports

Time Latitude Longitude Heading Altitude Ground
Speed
13-Jan-21 19:42 39.504393 -119.774256 16 4426ft 0kts
13-Jan-21 19:43 39.504393 -119.774256 16 4426ft 0kts
13-Jan-21 19:44 39.504393 -119.774256 16 4426ft 0kts
13-Jan-21 19:45 39.504393 -119.774256 16 4426ft 0kts
13-Jan-21 19:46 39.504393 -119.774256 16 4426ft 0kts
13-Jan-21 19:47 39.504393 -119.774256 16 4426ft 0kts
13-Jan-21 19:48 39.504393 -119.774256 16 4426ft 0kts
13-Jan-21 19:49 39.504393 -119.774256 16 4426ft 0kts
13-Jan-21 19:50 39.504393 -119.774256 16 4426ft 0kts
13-Jan-21 19:51 39.504393 -119.774256 16 4426ft 0kts
13-Jan-21 19:52 39.504393 -119.774256 16 4426ft 0kts
13-Jan-21 19:53 39.504393 -119.774256 16 4426ft 0kts
13-Jan-21 19:54 39.504393 -119.774256 16 4426ft 0kts
13-Jan-21 19:55 39.504392 -119.774256 16 4425ft 0kts
13-Jan-21 19:56 39.504392 -119.774256 16 4425ft 0kts
13-Jan-21 19:57 39.504392 -119.774256 16 4425ft 0kts
13-Jan-21 19:58 39.504392 -119.774256 16 4425ft 0kts
13-Jan-21 19:59 39.504392 -119.774256 16 4425ft 0kts
13-Jan-21 20:00 39.504392 -119.774256 16 4425ft 0kts
13-Jan-21 20:01 39.504392 -119.774256 16 4425ft 0kts
13-Jan-21 20:02 39.504392 -119.774256 16 4425ft 0kts
13-Jan-21 20:03 39.504392 -119.774256 16 4425ft 0kts
13-Jan-21 20:04 39.504392 -119.774256 16 4425ft 0kts
13-Jan-21 20:05 39.504392 -119.774256 16 4425ft 0kts
13-Jan-21 20:06 39.504392 -119.774256 16 4425ft 0kts
13-Jan-21 20:07 39.504392 -119.774256 16 4425ft 0kts
13-Jan-21 20:08 39.504392 -119.774256 16 4425ft 0kts
13-Jan-21 20:09 39.504392 -119.774256 16 4425ft 0kts
13-Jan-21 20:10 39.504392 -119.774256 16 4425ft 0kts
13-Jan-21 20:11 39.504392 -119.774256 16 4425ft 0kts
13-Jan-21 20:12 39.504392 -119.774256 16 4425ft 0kts
13-Jan-21 20:13 39.504392 -119.774256 16 4425ft 0kts
13-Jan-21 20:14 39.504392 -119.774256 16 4425ft 0kts
13-Jan-21 20:15 39.504392 -119.774256 16 4425ft 0kts
13-Jan-21 20:16 39.504392 -119.774256 16 4425ft 0kts
13-Jan-21 20:17 39.504392 -119.774256 16 4425ft 0kts
13-Jan-21 20:18 39.504392 -119.774256 16 4425ft 0kts
13-Jan-21 20:19 39.504392 -119.774256 16 4425ft 0kts
13-Jan-21 20:20 39.504392 -119.774256 16 4425ft 0kts
13-Jan-21 20:21 39.504392 -119.774256 16 4425ft 0kts
13-Jan-21 20:22 39.504392 -119.774256 16 4425ft 0kts
13-Jan-21 20:23 39.504392 -119.774256 16 4425ft 0kts
13-Jan-21 20:24 39.504392 -119.774256 16 4425ft 0kts
13-Jan-21 20:25 39.504392 -119.774256 16 4425ft 0kts
13-Jan-21 20:26 39.504392 -119.774256 16 4425ft 0kts
13-Jan-21 20:27 39.504392 -119.774256 16 4425ft 0kts
13-Jan-21 20:28 39.504392 -119.774256 16 4425ft 0kts
13-Jan-21 20:29 39.504076 -119.774414 11 4425ft 2kts
13-Jan-21 20:30 39.503572 -119.774467 357 4425ft 0kts
13-Jan-21 20:31 39.503742 -119.773827 89 4425ft 0kts
13-Jan-21 20:32 39.503742 -119.773826 89 4425ft 0kts
13-Jan-21 20:33 39.503742 -119.773826 89 4425ft 0kts
13-Jan-21 20:34 39.503742 -119.773817 89 4425ft 0kts
13-Jan-21 20:35 39.503742 -119.773494 89 4425ft 0kts
13-Jan-21 20:36 39.503740 -119.772418 90 4425ft 7kts
13-Jan-21 20:37 39.506787 -119.771510 0 4425ft 26kts
13-Jan-21 20:38 39.513099 -119.771481 0 4425ft 3kts
13-Jan-21 20:39 39.513506 -119.771376 30 4425ft 0kts
13-Jan-21 20:40 39.513747 -119.770562 90 4425ft 0kts
13-Jan-21 20:41 39.513746 -119.770544 90 4425ft 0kts
13-Jan-21 20:42 39.513746 -119.770504 90 4425ft 0kts
13-Jan-21 20:43 39.513695 -119.769795 109 4425ft 12kts
13-Jan-21 20:44 39.488086 -119.769211 177 4718ft 172kts
13-Jan-21 20:45 39.433370 -119.768475 183 6423ft 238kts
13-Jan-21 20:46 39.362911 -119.768730 178 9368ft 265kts
13-Jan-21 20:47 39.290378 -119.725224 132 10850ft 344kts
13-Jan-21 20:48 39.223010 -119.624591 130 13051ft 384kts
13-Jan-21 20:49 39.148740 -119.520829 137 15623ft 403kts
13-Jan-21 20:50 39.065174 -119.419912 137 17987ft 421kts
13-Jan-21 20:51 38.979085 -119.313481 137 19008ft 426kts
13-Jan-21 20:52 38.892894 -119.206840 137 19449ft 430kts
13-Jan-21 20:53 38.805410 -119.098927 137 21497ft 440kts
13-Jan-21 20:54 38.718439 -118.985656 133 23367ft 452kts
13-Jan-21 20:55 38.631266 -118.866693 133 25018ft 465kts
13-Jan-21 20:56 38.541168 -118.744341 132 26507ft 478kts
13-Jan-21 20:57 38.448490 -118.619025 131 27882ft 490kts
13-Jan-21 20:58 38.353684 -118.491343 130 29174ft 501kts
13-Jan-21 20:59 38.256853 -118.361488 130 30364ft 510kts
13-Jan-21 21:00 38.158131 -118.229534 131 31573ft 517kts
13-Jan-21 21:01 38.060896 -118.100206 131 33466ft 509kts
13-Jan-21 21:02 37.960759 -117.967535 131 33454ft 526kts
13-Jan-21 21:03 37.859877 -117.834560 131 33428ft 513kts
13-Jan-21 21:04 37.764843 -117.709833 131 33435ft 486kts
13-Jan-21 21:05 37.670321 -117.586163 131 33429ft 491kts
13-Jan-21 21:07 37.575245 -117.462233 131 33436ft 497kts
13-Jan-21 21:08 37.476643 -117.334358 134 33430ft 521kts
13-Jan-21 21:09 37.360248 -117.222219 144 33428ft 529kts
13-Jan-21 21:10 37.239799 -117.117186 145 33421ft 528kts
13-Jan-21 21:11 37.119723 -117.014947 145 31797ft 510kts
13-Jan-21 21:12 37.001552 -116.915260 145 30107ft 516kts
13-Jan-21 21:13 36.882723 -116.815491 146 28400ft 515kts
13-Jan-21 21:14 36.772364 -116.702958 133 26702ft 516kts
13-Jan-21 21:15 36.676917 -116.570294 131 24991ft 508kts
13-Jan-21 21:16 36.585295 -116.440511 131 23285ft 491kts
13-Jan-21 21:17 36.496491 -116.314743 131 21578ft 475kts
13-Jan-21 21:18 36.412166 -116.196052 131 20391ft 438kts
13-Jan-21 21:19 36.334573 -116.087375 131 18498ft 408kts
13-Jan-21 21:20 36.261633 -115.985267 130 16594ft 386kts
13-Jan-21 21:21 36.198150 -115.887805 115 15991ft 334kts
13-Jan-21 21:21 36.168486 -115.800215 109 15991ft 333kts
13-Jan-21 21:23 36.128602 -115.676040 109 15488ft 332kts
13-Jan-21 21:24 36.095248 -115.573034 108 13480ft 315kts
13-Jan-21 21:24 36.068141 -115.489323 108 11813ft 312kts
13-Jan-21 21:26 36.033085 -115.378354 99 10972ft 285kts
13-Jan-21 21:26 36.025468 -115.298471 90 10969ft 280kts
13-Jan-21 21:27 36.018457 -115.200959 90 8860ft 275kts
13-Jan-21 21:28 36.012279 -115.110131 91 7435ft 255kts
13-Jan-21 21:29 36.007001 -115.025652 91 6125ft 239kts
13-Jan-21 21:30 36.008590 -114.947044 47 4737ft 223kts
13-Jan-21 21:31 36.056956 -114.936043 0 4718ft 160kts
13-Jan-21 21:32 36.074123 -114.984312 268 4411ft 185kts
13-Jan-21 21:33 36.073702 -115.040564 271 3441ft 158kts
13-Jan-21 21:34 36.073675 -115.094860 270 2586ft 156kts
13-Jan-21 21:35 36.073735 -115.142988 281 2096ft 42kts
13-Jan-21 21:36 36.077486 -115.146687 339 2103ft 19kts
13-Jan-21 21:37 36.080287 -115.147387 65 2099ft 2kts
13-Jan-21 21:38 36.080318 -115.147301 66 2099ft 0kts
13-Jan-21 21:39 36.080318 -115.147301 66 2099ft 0kts
13-Jan-21 21:40 36.080318 -115.147301 66 2099ft 0kts
13-Jan-21 21:41 36.080318 -115.147301 66 2099ft 0kts
13-Jan-21 21:42 36.080318 -115.147301 66 2099ft 0kts
13-Jan-21 21:43 36.080318 -115.147301 66 2099ft 0kts

Navigation Log

Ident Type
Flight plan parsing failed, navigation log unavailable